< < Back
Terminal Aerodrome Forecast


Current Version              Previous Versions:   1  2  3  4  5  6  7  8  9  

Terminal Aerodrome Forecast

151
FTUS42 KFFC 031738
TAFPDK
TAF
KPDK 031738Z 0318/0418 35005KT P6SM SCT050
     FM040100 00000KT P6SM FEW080
     FM041700 32004KT P6SM FEW040 SCT250=



Latest METAR

994
SAUS70 KWBC 032100 RRE
MTRPDK
METAR KPDK 032053Z 00000KT 10SM CLR 34/17 A2991 RMK AO2 SLP108 T03390172
56007


USA.gov is the U.S. government's official web portal to all federal, state and local government web resources and services.